Time;durP1;ratioP1;P1;durP2;ratioP2;P2;SDS_P1;SDS_P2;PMS_P1;PMS_P2;Temp;Humidity;BMP_temperature;BMP_pressure;BME280_temperature;BME280_humidity;BME280_pressure;Samples;Min_cycle;Max_cycle;Signal;HPM_P1;HPM_P2
2021/05/15 00:01:09;;;;;;;1.63;1.10;;;23.90;46.70;;;;;;5030418;28;20206;-53
2021/05/15 00:03:35;;;;;;;2.85;1.10;;;24.00;46.50;;;;;;5029596;28;20287;-48
2021/05/15 00:06:02;;;;;;;1.45;1.20;;;23.90;46.80;;;;;;5030634;28;20234;-49
2021/05/15 00:08:28;;;;;;;1.20;1.10;;;24.00;46.80;;;;;;5030801;28;20241;-49
2021/05/15 00:10:54;;;;;;;1.88;1.20;;;24.00;47.00;;;;;;5030086;28;20805;-44
2021/05/15 00:13:20;;;;;;;1.45;1.00;;;24.00;46.70;;;;;;5029918;28;20226;-49
2021/05/15 00:15:46;;;;;;;1.20;1.10;;;24.00;46.80;;;;;;5029871;28;20320;-48
2021/05/15 00:18:12;;;;;;;1.13;1.02;;;23.90;46.70;;;;;;5030461;28;20289;-40
2021/05/15 00:20:38;;;;;;;2.30;1.23;;;24.00;46.60;;;;;;5030306;28;20202;-46
2021/05/15 00:23:04;;;;;;;0.90;0.90;;;24.00;46.70;;;;;;5029640;28;20222;-51
2021/05/15 00:25:30;;;;;;;1.50;1.08;;;24.00;46.80;;;;;;5030083;28;20241;-39
2021/05/15 00:27:56;;;;;;;1.42;0.88;;;23.90;46.70;;;;;;5030871;28;20199;-49
2021/05/15 00:30:22;;;;;;;1.50;1.00;;;24.00;46.90;;;;;;5027081;28;20210;-46
2021/05/15 00:32:48;;;;;;;1.20;1.10;;;24.00;46.90;;;;;;5028925;28;20604;-47
2021/05/15 00:35:14;;;;;;;1.08;0.98;;;24.00;46.90;;;;;;5029803;28;20253;-41
2021/05/15 00:37:40;;;;;;;0.95;0.85;;;24.00;47.00;;;;;;5030588;28;20206;-45
2021/05/15 00:40:06;;;;;;;2.00;1.00;;;24.00;46.80;;;;;;5030194;28;20627;-49
2021/05/15 00:42:33;;;;;;;0.82;0.82;;;24.00;46.80;;;;;;5029117;28;20222;-41
2021/05/15 00:44:59;;;;;;;1.42;1.00;;;23.90;46.60;;;;;;5028081;28;20293;-42
2021/05/15 00:47:25;;;;;;;1.90;1.10;;;23.90;46.60;;;;;;5028432;28;20205;-41
2021/05/15 00:49:51;;;;;;;1.73;1.40;;;23.90;46.60;;;;;;5029599;28;20206;-52
2021/05/15 00:52:17;;;;;;;0.80;0.80;;;24.00;47.50;;;;;;5030025;28;20697;-43
2021/05/15 00:54:42;;;;;;;1.15;1.08;;;23.90;46.80;;;;;;5029497;28;20195;-40
2021/05/15 00:57:08;;;;;;;1.92;1.02;;;24.00;46.90;;;;;;5030034;28;20268;-45
2021/05/15 00:59:34;;;;;;;0.95;0.88;;;24.00;46.80;;;;;;5030513;28;20202;-40
2021/05/15 01:02:00;;;;;;;1.58;0.98;;;24.00;46.80;;;;;;5029751;28;20218;-40
2021/05/15 01:04:26;;;;;;;1.27;1.00;;;23.90;46.80;;;;;;5028688;28;20205;-43
2021/05/15 01:06:52;;;;;;;0.90;0.90;;;23.90;46.80;;;;;;5030126;28;20194;-43
2021/05/15 01:09:18;;;;;;;0.88;0.88;;;24.00;47.00;;;;;;5030377;28;20689;-45
2021/05/15 01:11:44;;;;;;;1.73;1.10;;;24.00;47.20;;;;;;5029233;28;20226;-41
2021/05/15 01:14:10;;;;;;;1.08;1.00;;;24.00;47.20;;;;;;5029637;28;20227;-44
2021/05/15 01:16:36;;;;;;;1.15;0.90;;;24.00;47.30;;;;;;5029610;28;20221;-43
2021/05/15 01:19:02;;;;;;;0.90;0.90;;;24.00;47.30;;;;;;5030109;28;20209;-41
2021/05/15 01:21:28;;;;;;;1.55;0.90;;;24.00;47.30;;;;;;5029988;28;20226;-50
2021/05/15 01:23:54;;;;;;;1.80;1.00;;;24.00;47.60;;;;;;5029180;28;20257;-39
2021/05/15 01:26:20;;;;;;;1.30;1.08;;;24.00;47.70;;;;;;5029822;28;20203;-42
2021/05/15 01:28:46;;;;;;;1.40;1.00;;;23.90;47.60;;;;;;5029701;28;20199;-43
2021/05/15 01:31:12;;;;;;;0.80;0.80;;;24.00;47.70;;;;;;5029657;28;20202;-46
2021/05/15 01:33:38;;;;;;;0.90;0.90;;;23.90;47.50;;;;;;5032672;28;20245;-49
2021/05/15 01:36:04;;;;;;;2.40;1.00;;;23.90;47.30;;;;;;5033233;28;20265;-39
2021/05/15 01:38:30;;;;;;;1.45;0.90;;;23.90;47.50;;;;;;5033455;28;20206;-40
2021/05/15 01:40:56;;;;;;;1.80;0.98;;;24.00;47.60;;;;;;5032754;28;20206;-46
2021/05/15 01:43:22;;;;;;;1.08;1.00;;;23.90;47.50;;;;;;5032889;28;20234;-40
2021/05/15 01:45:48;;;;;;;1.08;1.05;;;24.00;47.70;;;;;;5032854;28;20274;-44
2021/05/15 01:48:14;;;;;;;0.98;0.98;;;24.00;47.50;;;;;;5032261;28;20211;-46
2021/05/15 01:50:40;;;;;;;1.17;1.08;;;24.00;47.40;;;;;;5031939;28;20269;-53
2021/05/15 01:53:06;;;;;;;0.82;0.80;;;23.90;47.50;;;;;;5032057;28;20234;-42
2021/05/15 01:55:32;;;;;;;1.23;1.00;;;24.00;47.40;;;;;;5032545;28;20225;-55
2021/05/15 01:57:58;;;;;;;1.52;0.90;;;24.00;47.70;;;;;;5033076;28;20206;-45
2021/05/15 02:00:24;;;;;;;2.40;1.58;;;24.00;47.60;;;;;;5032612;28;20205;-51
2021/05/15 02:02:50;;;;;;;1.65;1.10;;;23.90;47.50;;;;;;5031789;28;20233;-46
2021/05/15 02:05:16;;;;;;;1.20;1.10;;;23.90;47.50;;;;;;5028041;28;20257;-50
2021/05/15 02:07:42;;;;;;;0.80;0.80;;;23.90;47.60;;;;;;5032601;28;20203;-46
2021/05/15 02:10:08;;;;;;;1.17;1.08;;;23.90;47.80;;;;;;5032725;28;20202;-44
2021/05/15 02:12:34;;;;;;;1.67;0.90;;;23.90;48.00;;;;;;5032118;28;20561;-41
2021/05/15 02:15:00;;;;;;;1.50;1.00;;;23.90;48.00;;;;;;5031691;28;20198;-45
2021/05/15 02:17:26;;;;;;;1.10;1.00;;;23.90;48.20;;;;;;5032851;28;20574;-45
2021/05/15 02:19:52;;;;;;;0.90;0.90;;;23.90;48.10;;;;;;5032319;28;20194;-48
2021/05/15 02:22:18;;;;;;;1.23;1.00;;;23.90;48.00;;;;;;5032384;28;20226;-44
2021/05/15 02:24:44;;;;;;;1.95;1.08;;;23.90;48.00;;;;;;5031650;28;20194;-49
2021/05/15 02:27:10;;;;;;;1.42;0.90;;;23.90;48.20;;;;;;5032117;28;20252;-47
2021/05/15 02:29:36;;;;;;;0.88;0.88;;;23.90;48.30;;;;;;5031973;28;20622;-50
2021/05/15 02:32:02;;;;;;;0.90;0.90;;;23.90;48.30;;;;;;5029120;28;20234;-38
2021/05/15 02:34:28;;;;;;;0.90;0.90;;;23.90;48.40;;;;;;5026820;28;20199;-55
2021/05/15 02:36:54;;;;;;;1.30;0.90;;;23.90;48.50;;;;;;5032603;28;20226;-50
2021/05/15 02:39:20;;;;;;;0.90;0.90;;;23.90;48.40;;;;;;5031826;28;20206;-49
2021/05/15 02:41:46;;;;;;;1.50;0.90;;;23.90;49.30;;;;;;5030791;28;20202;-50
2021/05/15 02:44:12;;;;;;;0.93;0.90;;;23.90;48.50;;;;;;5030786;28;20265;-41
2021/05/15 02:46:38;;;;;;;1.88;1.10;;;23.90;48.80;;;;;;5030857;28;20674;-51
2021/05/15 02:49:04;;;;;;;1.00;0.80;;;23.90;49.10;;;;;;5030863;28;20195;-45
2021/05/15 02:51:30;;;;;;;0.80;0.80;;;23.90;49.40;;;;;;5031442;28;20587;-50
2021/05/15 02:53:56;;;;;;;0.88;0.88;;;23.90;49.30;;;;;;5031550;28;20223;-42
2021/05/15 02:56:22;;;;;;;0.90;0.90;;;23.90;49.50;;;;;;5031518;28;20221;-46
2021/05/15 02:58:48;;;;;;;1.50;1.08;;;23.90;49.80;;;;;;5032213;28;20202;-40
2021/05/15 03:01:14;;;;;;;1.02;0.93;;;23.90;50.90;;;;;;5030838;28;20203;-44
2021/05/15 03:03:40;;;;;;;1.02;0.93;;;23.90;50.50;;;;;;5030912;28;20292;-45
2021/05/15 03:06:06;;;;;;;1.35;1.00;;;23.90;50.50;;;;;;5031630;28;20674;-45
2021/05/15 03:08:32;;;;;;;1.20;1.00;;;23.90;50.60;;;;;;5031821;28;20203;-43
2021/05/15 03:10:58;;;;;;;1.05;0.80;;;23.90;50.60;;;;;;5030661;28;20568;-42
2021/05/15 03:13:24;;;;;;;2.13;0.90;;;23.90;51.00;;;;;;5030725;28;20246;-43
2021/05/15 03:15:50;;;;;;;0.80;0.80;;;24.00;50.90;;;;;;5030466;28;20214;-47
2021/05/15 03:18:16;;;;;;;0.90;0.90;;;23.90;50.50;;;;;;5031430;28;20655;-51
2021/05/15 03:20:42;;;;;;;1.60;1.00;;;23.90;50.10;;;;;;5031137;28;20205;-44
2021/05/15 03:23:08;;;;;;;1.38;1.00;;;23.90;50.20;;;;;;5030874;28;20580;-41
2021/05/15 03:25:34;;;;;;;0.95;0.95;;;23.90;48.60;;;;;;5030587;28;20194;-46
2021/05/15 03:28:00;;;;;;;1.17;0.90;;;23.90;40.50;;;;;;5031313;28;20292;-51
2021/05/15 03:30:26;;;;;;;2.25;1.00;;;23.90;39.20;;;;;;5031300;28;20198;-40
2021/05/15 03:32:52;;;;;;;1.25;1.15;;;23.90;38.70;;;;;;5031003;28;20226;-46
2021/05/15 03:35:19;;;;;;;3.15;0.90;;;23.90;38.60;;;;;;5030918;28;20213;-49
2021/05/15 03:37:45;;;;;;;1.85;0.95;;;23.90;38.50;;;;;;5030951;28;20285;-51
2021/05/15 03:40:11;;;;;;;1.88;0.90;;;23.90;38.50;;;;;;5030906;28;20206;-50
2021/05/15 03:42:38;;;;;;;3.60;0.95;;;23.90;38.40;;;;;;5030549;28;20848;-58
2021/05/15 03:45:04;;;;;;;1.20;1.10;;;23.90;38.60;;;;;;5030523;28;20252;-46
2021/05/15 03:47:30;;;;;;;0.90;0.90;;;23.90;38.60;;;;;;5030831;28;20210;-47
2021/05/15 03:49:56;;;;;;;1.30;1.20;;;23.90;38.40;;;;;;5030368;28;20604;-40
2021/05/15 03:52:22;;;;;;;1.83;1.17;;;23.90;38.40;;;;;;5029207;28;20295;-55
2021/05/15 03:54:48;;;;;;;1.40;0.90;;;23.90;38.20;;;;;;5029538;28;20191;-42
2021/05/15 03:57:14;;;;;;;1.83;0.90;;;23.90;38.40;;;;;;5030938;28;20206;-49
2021/05/15 03:59:40;;;;;;;1.17;1.08;;;23.90;38.00;;;;;;5030414;28;20209;-45
2021/05/15 04:02:06;;;;;;;0.95;0.90;;;23.90;38.20;;;;;;5030434;28;20230;-46
2021/05/15 04:04:33;;;;;;;2.30;0.90;;;23.90;38.30;;;;;;5029539;28;20559;-45
2021/05/15 04:06:59;;;;;;;1.40;1.00;;;23.90;38.10;;;;;;5030847;28;20207;-39
2021/05/15 04:09:26;;;;;;;1.30;0.90;;;23.90;38.10;;;;;;5030356;28;20202;-52
2021/05/15 04:11:52;;;;;;;1.15;1.05;;;23.90;38.20;;;;;;5030578;28;20323;-43
2021/05/15 04:14:27;;;;;;;0.77;0.77;;;23.90;38.60;;;;;;5029746;28;20583;-43
2021/05/15 04:17:15;;;;;;;1.50;0.85;;;23.90;38.20;;;;;;5030748;28;20635;-43
2021/05/15 04:19:41;;;;;;;0.80;0.80;;;23.90;38.40;;;;;;5030343;28;20572;-49
2021/05/15 04:22:07;;;;;;;1.10;1.00;;;23.90;38.20;;;;;;5030424;28;20233;-49
2021/05/15 04:24:33;;;;;;;1.83;0.90;;;23.90;38.50;;;;;;5029855;28;20209;-44
2021/05/15 04:26:59;;;;;;;1.30;1.20;;;23.90;38.20;;;;;;5021954;28;20199;-44
2021/05/15 04:29:25;;;;;;;0.90;0.80;;;23.90;38.10;;;;;;5030475;28;20197;-41
2021/05/15 04:31:53;;;;;;;1.15;0.98;;;23.90;38.20;;;;;;5029940;28;20234;-55
2021/05/15 04:34:19;;;;;;;1.52;0.93;;;23.90;38.40;;;;;;5026632;28;20203;-43
2021/05/15 04:36:45;;;;;;;1.10;0.90;;;23.90;38.30;;;;;;5030869;28;20209;-42
2021/05/15 04:39:11;;;;;;;1.17;1.00;;;23.90;38.20;;;;;;5030376;28;20282;-43
2021/05/15 04:41:37;;;;;;;1.15;0.82;;;23.90;38.30;;;;;;5030549;28;20222;-39
2021/05/15 04:44:03;;;;;;;1.40;0.90;;;23.90;38.30;;;;;;5029377;28;20268;-53
2021/05/15 04:46:29;;;;;;;1.08;0.90;;;23.90;38.60;;;;;;5030467;28;20202;-43
2021/05/15 04:48:55;;;;;;;0.90;0.82;;;23.90;38.40;;;;;;5029472;28;20211;-48
2021/05/15 04:51:21;;;;;;;1.23;1.00;;;23.90;38.40;;;;;;5029126;28;20678;-39
2021/05/15 04:53:47;;;;;;;0.80;0.80;;;23.90;38.40;;;;;;5029452;28;20207;-39
2021/05/15 04:56:14;;;;;;;1.23;0.80;;;23.90;38.40;;;;;;5029994;28;20728;-43
2021/05/15 04:58:40;;;;;;;0.85;0.85;;;23.90;38.40;;;;;;5030228;28;20252;-52
2021/05/15 05:01:06;;;;;;;0.70;0.70;;;23.90;38.40;;;;;;5029514;28;20203;-40
2021/05/15 05:03:32;;;;;;;3.15;1.00;;;23.90;38.50;;;;;;5029656;28;20667;-51
2021/05/15 05:05:58;;;;;;;1.27;0.85;;;23.90;38.40;;;;;;5031948;28;20202;-46
2021/05/15 05:08:25;;;;;;;1.13;0.90;;;23.90;38.40;;;;;;5033230;28;20580;-51
2021/05/15 05:10:51;;;;;;;1.17;0.90;;;23.90;38.70;;;;;;5030451;28;20206;-46
2021/05/15 05:13:17;;;;;;;0.95;0.90;;;23.90;38.40;;;;;;5033311;28;20234;-40
2021/05/15 05:15:43;;;;;;;1.58;0.90;;;23.90;38.70;;;;;;5032379;28;20606;-47
2021/05/15 05:18:09;;;;;;;1.77;0.85;;;23.90;38.40;;;;;;5033489;28;20268;-46
2021/05/15 05:20:35;;;;;;;1.38;0.70;;;23.90;38.20;;;;;;5033891;28;20252;-44
2021/05/15 05:23:01;;;;;;;0.93;0.93;;;23.90;38.40;;;;;;5032358;28;20308;-43
2021/05/15 05:25:27;;;;;;;0.90;0.90;;;23.90;38.30;;;;;;5032853;28;20207;-42
2021/05/15 05:27:53;;;;;;;1.33;0.85;;;23.90;38.40;;;;;;5033345;28;20558;-41
2021/05/15 05:30:19;;;;;;;0.93;0.80;;;23.90;38.60;;;;;;5032753;28;20205;-50
2021/05/15 05:32:45;;;;;;;0.80;0.80;;;23.90;38.50;;;;;;5031076;28;20226;-41
2021/05/15 05:35:11;;;;;;;0.90;0.90;;;23.90;38.40;;;;;;5029615;28;20535;-46
2021/05/15 05:37:37;;;;;;;1.58;0.90;;;23.90;39.40;;;;;;5021943;28;20198;-41
2021/05/15 05:40:03;;;;;;;2.83;0.80;;;23.90;39.70;;;;;;5032450;28;20202;-41
2021/05/15 05:42:29;;;;;;;3.15;1.15;;;23.90;39.40;;;;;;5032820;28;20245;-45
2021/05/15 05:44:55;;;;;;;2.78;0.95;;;23.90;39.60;;;;;;5030805;28;20210;-39
2021/05/15 05:47:21;;;;;;;1.17;0.80;;;23.90;39.50;;;;;;5032247;28;20651;-44
2021/05/15 05:49:47;;;;;;;1.27;0.93;;;24.00;39.20;;;;;;5025224;28;20206;-43
2021/05/15 05:52:14;;;;;;;1.65;1.00;;;23.90;38.80;;;;;;5028805;28;20396;-40
2021/05/15 05:54:40;;;;;;;1.02;0.93;;;23.40;34.80;;;;;;5030724;28;20205;-39
2021/05/15 05:57:06;;;;;;;1.48;1.00;;;22.80;35.80;;;;;;5031744;28;20203;-41
2021/05/15 05:59:33;;;;;;;1.73;0.90;;;22.40;41.20;;;;;;5031693;28;20652;-39
2021/05/15 06:01:59;;;;;;;1.17;0.80;;;22.50;33.90;;;;;;5030207;28;20254;-46
2021/05/15 06:04:25;;;;;;;0.75;0.75;;;22.60;32.30;;;;;;5027624;28;20217;-43
2021/05/15 06:06:51;;;;;;;0.90;0.80;;;22.90;33.00;;;;;;5033002;28;20203;-42
2021/05/15 06:09:19;;;;;;;0.70;0.70;;;23.10;32.50;;;;;;5029931;28;20206;-43
2021/05/15 06:11:45;;;;;;;1.45;0.88;;;23.30;32.90;;;;;;5026770;28;20268;-42
2021/05/15 06:14:11;;;;;;;0.65;0.60;;;23.40;33.80;;;;;;5032541;28;20195;-47
2021/05/15 06:16:37;;;;;;;0.80;0.75;;;23.40;32.10;;;;;;5027144;28;20951;-39
2021/05/15 06:19:03;;;;;;;0.82;0.73;;;23.50;32.10;;;;;;5030523;28;20235;-44
2021/05/15 06:21:29;;;;;;;1.10;0.85;;;23.50;32.00;;;;;;5032801;28;20226;-44
2021/05/15 06:23:55;;;;;;;0.68;0.68;;;23.60;31.90;;;;;;5032055;28;20214;-42
2021/05/15 06:26:21;;;;;;;0.75;0.70;;;23.60;31.90;;;;;;5032525;28;20670;-40
2021/05/15 06:28:47;;;;;;;0.70;0.70;;;23.60;31.90;;;;;;5030578;28;20296;-43
2021/05/15 06:31:13;;;;;;;0.80;0.70;;;23.60;31.90;;;;;;5030590;28;20243;-45
2021/05/15 06:33:39;;;;;;;0.70;0.70;;;23.60;31.80;;;;;;5027708;28;20238;-40
2021/05/15 06:36:05;;;;;;;0.80;0.80;;;23.70;32.20;;;;;;5031304;28;20205;-43
2021/05/15 06:38:31;;;;;;;0.68;0.68;;;23.80;32.10;;;;;;5031179;28;20265;-47
2021/05/15 06:40:57;;;;;;;0.65;0.65;;;23.80;32.10;;;;;;5031483;28;20202;-47
2021/05/15 06:43:23;;;;;;;1.35;0.70;;;23.80;32.10;;;;;;5031679;28;20272;-48
2021/05/15 06:45:49;;;;;;;0.65;0.65;;;23.80;32.50;;;;;;5030533;28;20203;-41
2021/05/15 06:48:16;;;;;;;0.70;0.70;;;23.80;32.10;;;;;;5031299;28;20287;-40
2021/05/15 06:50:42;;;;;;;0.77;0.77;;;23.80;32.00;;;;;;5031128;28;20265;-43
2021/05/15 06:53:07;;;;;;;0.70;0.70;;;23.80;31.80;;;;;;5029492;28;20242;-42
2021/05/15 06:55:33;;;;;;;1.20;1.00;;;23.80;31.80;;;;;;5030732;28;20257;-47
2021/05/15 06:57:59;;;;;;;0.75;0.60;;;23.80;31.90;;;;;;5029175;28;20621;-41
2021/05/15 07:00:25;;;;;;;0.80;0.80;;;23.80;31.80;;;;;;5028777;28;20194;-38
2021/05/15 07:02:51;;;;;;;0.70;0.70;;;23.90;31.90;;;;;;5026270;28;20521;-42
2021/05/15 07:05:17;;;;;;;0.88;0.82;;;23.90;32.10;;;;;;5011248;28;20211;-42
2021/05/15 07:07:49;;;;;;;4.60;0.90;;;23.80;31.90;;;;;;5028696;28;20198;-38
2021/05/15 07:10:15;;;;;;;2.30;0.90;;;23.80;31.60;;;;;;5020490;28;20202;-49
2021/05/15 07:12:41;;;;;;;1.13;0.77;;;23.80;31.60;;;;;;5027731;28;20230;-49
2021/05/15 07:15:07;;;;;;;1.90;0.90;;;23.80;31.70;;;;;;5025062;28;20198;-40
2021/05/15 07:17:33;;;;;;;0.80;0.73;;;23.80;32.00;;;;;;5029342;28;20202;-50
2021/05/15 07:19:59;;;;;;;2.20;0.88;;;23.80;31.80;;;;;;5028796;28;20587;-51
2021/05/15 07:22:25;;;;;;;1.85;0.95;;;23.80;31.70;;;;;;5026218;28;20343;-50
2021/05/15 07:24:51;;;;;;;3.22;1.00;;;23.80;32.30;;;;;;5013807;28;20211;-41
2021/05/15 07:27:17;;;;;;;2.03;0.90;;;23.80;31.60;;;;;;5028693;28;20634;-44
2021/05/15 07:29:43;;;;;;;2.05;0.90;;;23.80;31.50;;;;;;5030603;28;20202;-41
2021/05/15 07:32:09;;;;;;;1.48;0.80;;;23.80;32.10;;;;;;5034070;28;20234;-42
2021/05/15 07:34:35;;;;;;;1.02;0.80;;;23.80;32.10;;;;;;5037265;28;20213;-51
2021/05/15 07:37:01;;;;;;;4.22;1.10;;;23.70;31.40;;;;;;5038729;28;20209;-48
2021/05/15 07:39:27;;;;;;;1.65;1.10;;;23.80;31.80;;;;;;5023064;28;20566;-42
2021/05/15 07:41:53;;;;;;;0.70;0.70;;;23.80;31.50;;;;;;5035714;28;20222;-43
2021/05/15 07:44:21;;;;;;;1.52;0.90;;;23.80;31.50;;;;;;5026506;28;20264;-53
2021/05/15 07:46:47;;;;;;;0.80;0.80;;;23.80;31.80;;;;;;5028885;28;20575;-41
2021/05/15 07:49:13;;;;;;;1.10;0.80;;;23.80;31.90;;;;;;5028854;28;20463;-47
2021/05/15 07:51:39;;;;;;;1.02;0.90;;;23.80;32.00;;;;;;5022663;28;20222;-41
2021/05/15 07:54:05;;;;;;;0.93;0.85;;;23.80;31.90;;;;;;5019534;28;20203;-42
2021/05/15 07:56:31;;;;;;;3.90;1.15;;;23.90;31.90;;;;;;5011142;28;20207;-44
2021/05/15 07:58:57;;;;;;;1.90;1.20;;;23.80;30.90;;;;;;5021124;28;20261;-38
2021/05/15 08:01:23;;;;;;;1.23;0.70;;;23.80;31.30;;;;;;5023605;28;20591;-46
2021/05/15 08:03:49;;;;;;;2.22;0.90;;;23.80;31.60;;;;;;5026481;28;20206;-44
2021/05/15 08:06:15;;;;;;;2.63;1.08;;;23.80;31.60;;;;;;5023411;28;20210;-55
2021/05/15 08:08:41;;;;;;;3.10;1.40;;;23.80;31.40;;;;;;5026985;28;20290;-44
2021/05/15 08:11:07;;;;;;;2.83;1.60;;;23.80;31.30;;;;;;5022999;28;20235;-45
2021/05/15 08:13:33;;;;;;;2.17;1.20;;;23.80;31.30;;;;;;5012431;28;20644;-41
2021/05/15 08:15:59;;;;;;;4.03;1.60;;;23.80;31.50;;;;;;5024636;28;20214;-57
2021/05/15 08:18:25;;;;;;;1.70;1.10;;;23.80;31.50;;;;;;5025803;28;20582;-45
2021/05/15 08:20:51;;;;;;;3.88;1.10;;;23.90;31.90;;;;;;5028220;28;20233;-43
2021/05/15 08:23:17;;;;;;;2.00;1.27;;;23.90;32.10;;;;;;5024228;28;20214;-50
2021/05/15 08:25:43;;;;;;;1.92;1.20;;;23.90;33.10;;;;;;5028187;28;20206;-43
2021/05/15 08:28:11;;;;;;;2.08;1.05;;;23.90;33.60;;;;;;5029578;28;20202;-40
2021/05/15 08:30:37;;;;;;;1.20;1.10;;;23.90;34.30;;;;;;5029861;28;20230;-51
2021/05/15 08:33:03;;;;;;;1.90;1.00;;;23.80;34.60;;;;;;5028657;28;20275;-49
2021/05/15 08:35:29;;;;;;;2.60;1.33;;;23.80;34.60;;;;;;5027021;28;20274;-39
2021/05/15 08:37:55;;;;;;;2.97;1.38;;;23.80;33.00;;;;;;5023278;28;20199;-53
2021/05/15 08:40:21;;;;;;;1.52;1.10;;;23.80;33.00;;;;;;5029749;28;20210;-47
2021/05/15 08:42:47;;;;;;;3.75;1.20;;;23.80;33.70;;;;;;5034558;28;20665;-45
2021/05/15 08:45:13;;;;;;;2.17;1.23;;;23.80;34.70;;;;;;5034061;28;20213;-51
2021/05/15 08:47:39;;;;;;;1.30;1.20;;;23.80;34.70;;;;;;5034308;28;20203;-50
2021/05/15 08:50:07;;;;;;;2.05;1.02;;;23.80;34.60;;;;;;5034149;28;20202;-44
2021/05/15 08:52:33;;;;;;;1.67;1.45;;;23.80;34.50;;;;;;5026574;28;20327;-43
2021/05/15 08:54:59;;;;;;;1.55;1.10;;;23.80;34.30;;;;;;5033785;28;20203;-49
2021/05/15 08:57:25;;;;;;;3.10;1.20;;;23.80;34.50;;;;;;5032283;28;20209;-43
2021/05/15 08:59:50;;;;;;;1.00;0.90;;;23.80;34.50;;;;;;5033437;28;20194;-42
2021/05/15 09:02:16;;;;;;;2.03;1.02;;;23.80;34.50;;;;;;5032337;28;20600;-44
2021/05/15 09:04:42;;;;;;;1.35;1.15;;;23.80;34.40;;;;;;5033956;28;20213;-40
2021/05/15 09:07:08;;;;;;;1.45;0.95;;;23.80;34.20;;;;;;5032851;28;20226;-41
2021/05/15 09:09:34;;;;;;;1.80;1.35;;;23.80;34.20;;;;;;5032490;28;20651;-45
2021/05/15 09:12:00;;;;;;;0.93;0.75;;;23.80;33.90;;;;;;5031580;28;20218;-41
2021/05/15 09:14:26;;;;;;;0.90;0.90;;;23.80;33.70;;;;;;5030637;28;20569;-42
2021/05/15 09:16:52;;;;;;;1.35;0.93;;;23.80;33.60;;;;;;5032414;28;20202;-40
2021/05/15 09:19:18;;;;;;;1.10;1.00;;;23.80;33.30;;;;;;5033404;28;20659;-45
2021/05/15 09:21:44;;;;;;;1.00;0.80;;;23.90;33.40;;;;;;5032657;28;20258;-53
2021/05/15 09:24:10;;;;;;;1.85;1.02;;;23.90;33.10;;;;;;5032878;28;20209;-42
2021/05/15 09:26:36;;;;;;;0.98;0.98;;;23.90;33.50;;;;;;5032117;28;20221;-39
2021/05/15 09:29:03;;;;;;;1.00;0.90;;;23.90;33.50;;;;;;5032371;28;20214;-39
2021/05/15 09:31:29;;;;;;;1.27;0.90;;;23.90;33.40;;;;;;5032113;28;20218;-40
2021/05/15 09:33:55;;;;;;;1.05;0.95;;;23.80;33.10;;;;;;5031969;28;20679;-48
2021/05/15 09:36:21;;;;;;;1.08;0.77;;;23.90;33.10;;;;;;5033356;28;20222;-41
2021/05/15 09:38:47;;;;;;;1.42;0.95;;;23.80;33.10;;;;;;5029414;28;20714;-43
2021/05/15 09:41:13;;;;;;;1.73;0.90;;;23.80;33.00;;;;;;5029275;28;20223;-39
2021/05/15 09:43:39;;;;;;;0.98;0.90;;;23.80;33.10;;;;;;5023356;28;20575;-42
2021/05/15 09:46:05;;;;;;;2.10;1.40;;;23.80;33.40;;;;;;5031021;28;20233;-42
2021/05/15 09:48:37;;;;;;;3.65;1.80;;;23.90;34.10;;;;;;5031910;28;20202;-42
2021/05/15 09:51:03;;;;;;;5.85;1.95;;;23.90;34.80;;;;;;5030550;28;20222;-46
2021/05/15 09:53:29;;;;;;;3.42;1.35;;;23.90;34.30;;;;;;5029986;28;20324;-39
2021/05/15 09:55:56;;;;;;;4.57;1.70;;;23.90;34.30;;;;;;5030073;28;20221;-40
2021/05/15 09:58:22;;;;;;;4.75;1.70;;;23.90;33.90;;;;;;5032127;28;20207;-41
2021/05/15 10:00:49;;;;;;;7.32;2.08;;;23.90;34.00;;;;;;5024783;28;20671;-46
2021/05/15 10:03:15;;;;;;;8.07;2.08;;;24.00;35.10;;;;;;5029284;28;20194;-43
2021/05/15 10:05:41;;;;;;;8.05;2.63;;;24.00;35.80;;;;;;5029933;28;20591;-51
2021/05/15 10:08:07;;;;;;;6.13;1.90;;;24.00;36.10;;;;;;5039619;28;20201;-49
2021/05/15 10:10:33;;;;;;;6.05;2.13;;;23.90;35.30;;;;;;5030222;28;20227;-48
2021/05/15 10:12:59;;;;;;;7.13;2.75;;;24.00;35.30;;;;;;5025863;28;20306;-44
2021/05/15 10:15:24;;;;;;;11.15;2.85;;;23.90;34.70;;;;;;5030990;28;20210;-51
2021/05/15 10:17:50;;;;;;;2.53;1.52;;;23.90;35.10;;;;;;5029439;28;20566;-46
2021/05/15 10:20:16;;;;;;;4.05;1.80;;;23.90;35.50;;;;;;5031783;28;20399;-45
2021/05/15 10:22:42;;;;;;;7.00;1.60;;;23.90;35.70;;;;;;5030893;28;20569;-42
2021/05/15 10:25:08;;;;;;;4.97;1.67;;;23.90;35.30;;;;;;5029505;28;20210;-52
2021/05/15 10:27:36;;;;;;;4.70;1.80;;;23.90;34.70;;;;;;5030314;28;20545;-45
2021/05/15 10:30:02;;;;;;;4.35;1.88;;;23.90;34.70;;;;;;5032248;28;20233;-51
2021/05/15 10:32:29;;;;;;;2.22;1.42;;;23.90;34.60;;;;;;5029090;28;20264;-48
2021/05/15 10:34:55;;;;;;;3.22;1.35;;;23.90;34.00;;;;;;5030821;28;20305;-48
2021/05/15 10:37:21;;;;;;;3.40;1.25;;;23.90;33.70;;;;;;5029406;28;20202;-42
2021/05/15 10:39:48;;;;;;;2.35;1.30;;;23.90;33.40;;;;;;5029996;28;20277;-38
2021/05/15 10:42:14;;;;;;;2.28;1.15;;;23.90;33.10;;;;;;5030246;28;20267;-47
2021/05/15 10:44:40;;;;;;;2.45;1.42;;;23.90;33.30;;;;;;5022890;28;20199;-48
2021/05/15 10:47:06;;;;;;;2.88;1.02;;;23.90;33.20;;;;;;5027851;28;20679;-42
2021/05/15 10:49:32;;;;;;;2.03;1.27;;;23.90;33.20;;;;;;5030180;28;20202;-43
2021/05/15 10:51:58;;;;;;;1.77;0.80;;;23.90;33.50;;;;;;5029123;28;20326;-49
2021/05/15 10:54:24;;;;;;;2.22;0.98;;;23.90;33.10;;;;;;5024391;28;20661;-44
2021/05/15 10:56:50;;;;;;;1.92;0.90;;;23.90;34.10;;;;;;5028379;28;20266;-43
2021/05/15 10:59:16;;;;;;;2.38;1.00;;;24.00;34.90;;;;;;5029541;28;20202;-39
2021/05/15 11:01:42;;;;;;;1.35;0.90;;;24.00;35.00;;;;;;5031564;28;20202;-45
2021/05/15 11:04:08;;;;;;;1.77;0.90;;;23.90;33.60;;;;;;5026345;28;20539;-45
2021/05/15 11:06:34;;;;;;;3.38;1.00;;;23.90;33.00;;;;;;5030818;28;20206;-43
2021/05/15 11:09:00;;;;;;;1.75;0.80;;;23.90;32.20;;;;;;5029626;28;20206;-52
2021/05/15 11:11:26;;;;;;;1.45;0.80;;;23.90;31.90;;;;;;5029780;28;20238;-43
2021/05/15 11:13:52;;;;;;;2.38;0.82;;;23.90;31.90;;;;;;5028350;28;20281;-45
2021/05/15 11:16:18;;;;;;;2.95;0.88;;;23.90;32.40;;;;;;5030069;28;20214;-40
2021/05/15 11:18:44;;;;;;;2.30;1.00;;;23.90;32.50;;;;;;5029852;28;20209;-40
2021/05/15 11:21:11;;;;;;;0.95;0.80;;;23.90;32.60;;;;;;5029878;28;20257;-40
2021/05/15 11:23:37;;;;;;;1.60;1.00;;;23.90;33.20;;;;;;5029220;28;20207;-43
2021/05/15 11:26:03;;;;;;;1.10;0.88;;;23.90;32.20;;;;;;5030570;28;20963;-45
2021/05/15 11:28:29;;;;;;;1.80;1.08;;;23.90;32.30;;;;;;5031324;28;20301;-51
2021/05/15 11:30:55;;;;;;;2.05;0.95;;;23.90;32.70;;;;;;5030089;28;20317;-47
2021/05/15 11:33:21;;;;;;;1.10;1.00;;;24.00;33.20;;;;;;5029729;28;20233;-45
2021/05/15 11:35:47;;;;;;;2.08;1.17;;;23.90;32.40;;;;;;5031339;28;20210;-44
2021/05/15 11:38:13;;;;;;;1.63;1.10;;;23.90;32.30;;;;;;5030460;28;20198;-52
2021/05/15 11:40:39;;;;;;;2.70;1.42;;;23.90;32.50;;;;;;5030995;28;20228;-45
2021/05/15 11:43:05;;;;;;;2.70;1.50;;;24.00;32.60;;;;;;5029563;28;20195;-42
2021/05/15 11:45:32;;;;;;;3.38;1.40;;;23.90;32.10;;;;;;5030337;28;20202;-42
2021/05/15 11:47:58;;;;;;;5.63;2.55;;;23.90;32.30;;;;;;5030664;28;20199;-50
2021/05/15 11:50:24;;;;;;;3.38;2.70;;;23.90;32.20;;;;;;5029391;28;20539;-45
2021/05/15 11:52:50;;;;;;;4.55;3.15;;;23.90;32.30;;;;;;5027448;28;20227;-50
2021/05/15 11:55:16;;;;;;;4.95;2.83;;;23.90;32.20;;;;;;5029765;28;20194;-40
2021/05/15 11:57:42;;;;;;;4.38;2.88;;;23.90;32.20;;;;;;5030117;28;20199;-42
2021/05/15 12:00:08;;;;;;;7.53;3.53;;;23.90;32.20;;;;;;5028180;28;20229;-41
2021/05/15 12:02:34;;;;;;;5.45;2.53;;;23.90;32.20;;;;;;5030112;28;20234;-45
2021/05/15 12:05:00;;;;;;;6.95;2.90;;;23.90;32.10;;;;;;5023785;28;20234;-44
2021/05/15 12:07:26;;;;;;;6.30;2.42;;;23.90;32.10;;;;;;5026790;28;20584;-43
2021/05/15 12:09:52;;;;;;;5.03;2.47;;;23.90;32.10;;;;;;5029816;28;20198;-39
2021/05/15 12:12:18;;;;;;;3.08;2.10;;;23.90;31.20;;;;;;5028736;28;20218;-40
2021/05/15 12:14:44;;;;;;;4.20;1.70;;;23.80;30.10;;;;;;5022485;28;20727;-43
2021/05/15 12:17:10;;;;;;;1.88;1.38;;;23.70;29.40;;;;;;5027552;28;20210;-42
2021/05/15 12:19:36;;;;;;;1.75;1.10;;;23.70;28.20;;;;;;5028397;28;20565;-40
2021/05/15 12:22:02;;;;;;;2.97;1.52;;;23.60;27.70;;;;;;5026085;28;20190;-40
2021/05/15 12:24:28;;;;;;;1.30;1.20;;;23.60;27.90;;;;;;5016034;28;20199;-43
2021/05/15 12:26:54;;;;;;;1.52;1.00;;;23.60;27.00;;;;;;5018332;28;20198;-47
2021/05/15 12:29:20;;;;;;;1.30;1.20;;;23.60;26.00;;;;;;5030368;28;20198;-39
2021/05/15 12:31:46;;;;;;;1.05;0.95;;;23.60;25.90;;;;;;5028754;28;20225;-39
2021/05/15 12:34:12;;;;;;;0.85;0.85;;;23.60;25.70;;;;;;5029844;28;20284;-39
2021/05/15 12:36:38;;;;;;;1.05;0.90;;;23.60;25.80;;;;;;5029049;28;20202;-41
2021/05/15 12:39:04;;;;;;;1.67;0.90;;;23.60;26.40;;;;;;5028066;28;20198;-38
2021/05/15 12:41:30;;;;;;;1.25;1.15;;;23.60;26.60;;;;;;5027612;28;20564;-38